Time;durP1;ratioP1;P1;durP2;ratioP2;P2;SDS_P1;SDS_P2;PMS_P1;PMS_P2;Temp;Humidity;BMP_temperature;BMP_pressure;BME280_temperature;BME280_humidity;BME280_pressure;Samples;Min_cycle;Max_cycle;Signal;HPM_P1;HPM_P2
2021/06/24 00:02:09;;;;;;;3.57;3.27;;;21.20;99.90;;;;;;5024516;28;20644;-80
2021/06/24 00:04:35;;;;;;;3.60;3.30;;;21.20;99.90;;;;;;5038788;28;20334;-77
2021/06/24 00:07:02;;;;;;;4.03;3.20;;;21.20;99.90;;;;;;5059572;28;20188;-80
2021/06/24 00:09:28;;;;;;;7.03;3.20;;;21.20;99.90;;;;;;5044852;28;20337;-76
2021/06/24 00:11:54;;;;;;;4.43;3.23;;;21.30;99.90;;;;;;5026257;28;21172;-77
2021/06/24 00:14:21;;;;;;;3.70;3.10;;;21.30;99.90;;;;;;5047443;28;20230;-77
2021/06/24 00:16:47;;;;;;;3.57;3.27;;;21.30;99.90;;;;;;5026350;28;20896;-77
2021/06/24 00:19:14;;;;;;;3.57;3.27;;;21.30;99.90;;;;;;5060251;28;20199;-77
2021/06/24 00:21:40;;;;;;;8.50;3.27;;;21.20;99.90;;;;;;5030255;28;20183;-78
2021/06/24 00:24:06;;;;;;;3.73;3.27;;;21.20;99.90;;;;;;5029027;28;20222;-77
2021/06/24 00:26:33;;;;;;;3.33;3.03;;;21.20;99.90;;;;;;5032144;28;20292;-78
2021/06/24 00:28:59;;;;;;;3.40;3.10;;;21.20;99.90;;;;;;5055493;28;21886;-77
2021/06/24 00:31:26;;;;;;;3.90;3.50;;;21.10;99.90;;;;;;5042554;28;20307;-77
2021/06/24 00:33:52;;;;;;;4.00;3.50;;;21.10;99.90;;;;;;5056073;28;20904;-78
2021/06/24 00:36:19;;;;;;;3.60;3.30;;;21.10;99.90;;;;;;5045758;28;21819;-77
2021/06/24 00:38:45;;;;;;;3.60;3.27;;;21.10;99.90;;;;;;5041044;28;21428;-77
2021/06/24 00:41:12;;;;;;;3.53;3.23;;;21.10;99.90;;;;;;5035065;28;20333;-77
2021/06/24 00:43:39;;;;;;;3.67;3.33;;;21.10;99.90;;;;;;5026278;28;20195;-77
2021/06/24 00:46:05;;;;;;;5.40;3.23;;;21.10;99.90;;;;;;5024994;28;20210;-77
2021/06/24 00:48:31;;;;;;;5.07;3.30;;;21.00;99.90;;;;;;5036301;28;20282;-78
2021/06/24 00:50:58;;;;;;;4.77;3.27;;;21.10;99.90;;;;;;5045866;28;20200;-78
2021/06/24 00:53:24;;;;;;;5.00;3.30;;;21.00;99.90;;;;;;5042236;28;20223;-77
2021/06/24 00:55:52;;;;;;;5.50;3.13;;;21.00;99.90;;;;;;5044984;28;20187;-77
2021/06/24 00:58:25;;;;;;;4.23;3.33;;;21.00;99.90;;;;;;5041927;28;20537;-78
2021/06/24 01:00:55;;;;;;;3.57;3.27;;;20.90;99.90;;;;;;5041072;28;20196;-78
2021/06/24 01:03:23;;;;;;;4.00;3.43;;;20.90;99.90;;;;;;5010529;28;20905;-78
2021/06/24 01:05:51;;;;;;;4.00;3.60;;;20.90;99.90;;;;;;5013084;28;20256;-75
2021/06/24 01:08:22;;;;;;;7.03;3.47;;;20.90;99.90;;;;;;5041675;28;20370;-77
2021/06/24 01:10:50;;;;;;;4.70;3.43;;;20.90;99.90;;;;;;5009080;28;20810;-78
2021/06/24 01:13:17;;;;;;;3.57;3.27;;;20.80;99.90;;;;;;5039886;28;20208;-78
2021/06/24 01:15:43;;;;;;;3.77;3.30;;;20.80;99.90;;;;;;5043016;28;20194;-78
2021/06/24 01:18:09;;;;;;;4.23;3.37;;;20.80;99.90;;;;;;5040397;28;20269;-78
2021/06/24 01:20:37;;;;;;;4.37;3.40;;;20.80;99.90;;;;;;5053930;28;20186;-78
2021/06/24 01:23:05;;;;;;;3.63;3.30;;;20.70;99.90;;;;;;5045392;28;20215;-77
2021/06/24 01:25:34;;;;;;;3.20;2.90;;;20.70;99.90;;;;;;5025707;28;20230;-79
2021/06/24 01:28:07;;;;;;;5.33;3.50;;;20.70;99.90;;;;;;5055211;28;20219;-79
2021/06/24 01:30:36;;;;;;;5.87;3.17;;;20.70;99.90;;;;;;5041413;28;20282;-79
2021/06/24 01:33:05;;;;;;;4.23;3.30;;;20.70;99.90;;;;;;5027091;28;20933;-79
2021/06/24 01:35:33;;;;;;;3.93;3.20;;;20.70;99.90;;;;;;5025434;28;20274;-79
2021/06/24 01:38:06;;;;;;;3.47;3.17;;;20.70;99.90;;;;;;5041403;28;20209;-79
2021/06/24 01:40:35;;;;;;;3.97;3.17;;;20.70;99.90;;;;;;5031225;28;20187;-79
2021/06/24 01:43:02;;;;;;;3.73;3.40;;;20.70;99.90;;;;;;5041075;28;20557;-79
2021/06/24 01:45:29;;;;;;;4.10;3.50;;;20.70;99.90;;;;;;5039584;28;20183;-79
2021/06/24 01:47:55;;;;;;;3.70;3.10;;;20.70;99.90;;;;;;5046278;28;20200;-79
2021/06/24 01:50:22;;;;;;;3.67;3.37;;;20.80;99.90;;;;;;5025511;28;20187;-79
2021/06/24 01:52:50;;;;;;;4.27;3.77;;;20.80;99.90;;;;;;5041327;28;20180;-79
2021/06/24 01:55:18;;;;;;;4.67;3.70;;;20.70;99.90;;;;;;5044983;28;20731;-79
2021/06/24 01:57:44;;;;;;;3.40;3.10;;;20.80;99.90;;;;;;5028277;28;20195;-79
2021/06/24 02:00:13;;;;;;;4.20;3.63;;;20.80;99.90;;;;;;5027420;28;20286;-79
2021/06/24 02:02:42;;;;;;;5.43;3.27;;;20.80;99.90;;;;;;5049936;28;20199;-80
2021/06/24 02:05:10;;;;;;;3.83;3.50;;;20.80;99.90;;;;;;5028230;28;20206;-80
2021/06/24 02:07:42;;;;;;;3.90;3.30;;;20.80;99.90;;;;;;5044949;28;20262;-79
2021/06/24 02:10:13;;;;;;;3.80;3.40;;;20.80;99.90;;;;;;5045468;28;20226;-79
2021/06/24 02:12:41;;;;;;;4.03;3.57;;;20.80;99.90;;;;;;5043103;28;20198;-79
2021/06/24 02:15:12;;;;;;;3.53;3.23;;;20.80;99.90;;;;;;5040135;28;20188;-79
2021/06/24 02:17:39;;;;;;;3.97;3.50;;;20.80;99.90;;;;;;5032111;28;20183;-77
2021/06/24 02:20:13;;;;;;;4.87;3.50;;;20.80;99.90;;;;;;5046125;28;20191;-77
2021/06/24 02:22:43;;;;;;;4.10;3.60;;;20.80;99.90;;;;;;5028634;28;20202;-79
2021/06/24 02:25:13;;;;;;;3.53;2.97;;;20.90;99.90;;;;;;5039081;28;20767;-79
2021/06/24 02:27:41;;;;;;;5.60;3.27;;;20.90;99.90;;;;;;5026259;28;20929;-79
2021/06/24 02:30:10;;;;;;;3.77;3.07;;;20.90;99.90;;;;;;5012850;28;20225;-79
2021/06/24 02:32:37;;;;;;;3.80;3.00;;;21.00;99.90;;;;;;5046312;28;20183;-79
2021/06/24 02:35:08;;;;;;;3.57;3.20;;;21.00;99.90;;;;;;5047308;28;20257;-79
2021/06/24 02:37:35;;;;;;;4.60;3.30;;;21.10;99.90;;;;;;5010806;28;20195;-78
2021/06/24 02:40:03;;;;;;;4.10;3.00;;;21.10;99.90;;;;;;5029545;28;20218;-79
2021/06/24 02:42:29;;;;;;;3.70;3.37;;;21.10;99.90;;;;;;5042501;28;20195;-79
2021/06/24 02:44:56;;;;;;;4.10;3.00;;;21.10;99.90;;;;;;5029421;28;20233;-79
2021/06/24 02:47:22;;;;;;;3.50;2.87;;;21.10;99.90;;;;;;5065336;28;20219;-77
2021/06/24 02:49:53;;;;;;;3.10;2.77;;;21.20;99.90;;;;;;5048632;28;20235;-77
2021/06/24 02:52:21;;;;;;;3.00;2.70;;;21.30;99.90;;;;;;5027199;28;21993;-77
2021/06/24 02:54:51;;;;;;;4.30;2.90;;;21.30;99.90;;;;;;5029627;28;20215;-78
2021/06/24 02:57:19;;;;;;;6.23;2.83;;;21.40;99.90;;;;;;5029109;28;20245;-78
2021/06/24 02:59:50;;;;;;;3.10;2.80;;;21.50;99.90;;;;;;5030820;28;20195;-78
2021/06/24 03:02:17;;;;;;;2.73;2.53;;;21.50;99.90;;;;;;5028507;28;20199;-77
2021/06/24 03:04:50;;;;;;;3.27;2.80;;;21.60;99.90;;;;;;5030270;28;20247;-79
2021/06/24 03:07:17;;;;;;;4.70;3.30;;;21.50;99.90;;;;;;5042387;28;20223;-78
2021/06/24 03:09:48;;;;;;;3.27;2.80;;;21.40;99.90;;;;;;5014196;28;20755;-76
2021/06/24 03:12:15;;;;;;;2.90;2.60;;;21.40;99.90;;;;;;5014393;28;21023;-77
2021/06/24 03:14:43;;;;;;;3.93;2.80;;;21.40;99.90;;;;;;5045558;28;20876;-77
2021/06/24 03:17:14;;;;;;;4.80;2.70;;;21.40;99.90;;;;;;5027727;28;20253;-78
2021/06/24 03:19:41;;;;;;;2.70;2.50;;;21.40;99.90;;;;;;5044501;28;20753;-78
2021/06/24 03:22:08;;;;;;;3.47;2.70;;;21.40;99.90;;;;;;5029637;28;20214;-77
2021/06/24 03:24:34;;;;;;;2.80;2.50;;;21.40;99.90;;;;;;5025172;28;20195;-77
2021/06/24 03:27:00;;;;;;;2.70;2.30;;;21.50;99.90;;;;;;5041259;28;20209;-75
2021/06/24 03:29:27;;;;;;;2.97;2.67;;;21.40;99.90;;;;;;5033008;28;20808;-78
2021/06/24 03:31:53;;;;;;;5.17;2.47;;;21.50;99.90;;;;;;5043982;28;20192;-78
2021/06/24 03:34:20;;;;;;;7.43;2.70;;;21.40;99.90;;;;;;5055236;28;20219;-78
2021/06/24 03:36:46;;;;;;;3.80;2.47;;;21.40;99.90;;;;;;5058152;28;20250;-77
2021/06/24 03:39:13;;;;;;;2.67;2.43;;;21.40;99.90;;;;;;5057667;28;20201;-77
2021/06/24 03:41:39;;;;;;;2.47;2.23;;;21.40;99.90;;;;;;5031322;28;20183;-77
2021/06/24 03:44:06;;;;;;;2.73;2.33;;;21.50;99.90;;;;;;5042715;28;20540;-77
2021/06/24 03:46:33;;;;;;;3.67;2.40;;;21.50;99.90;;;;;;5027196;28;20187;-76
2021/06/24 03:49:00;;;;;;;3.20;2.30;;;21.50;99.90;;;;;;5045644;28;20636;-76
2021/06/24 03:51:26;;;;;;;3.50;2.50;;;21.50;99.90;;;;;;5048756;28;20191;-76
2021/06/24 03:53:53;;;;;;;3.13;2.27;;;21.50;99.90;;;;;;5027406;28;21802;-76
2021/06/24 03:56:20;;;;;;;3.10;2.10;;;21.50;99.90;;;;;;5038420;28;20556;-76
2021/06/24 03:58:46;;;;;;;2.50;2.30;;;21.50;99.90;;;;;;5058132;28;20234;-75
2021/06/24 04:01:12;;;;;;;2.70;2.50;;;21.50;99.90;;;;;;5026814;28;20183;-77
2021/06/24 04:03:39;;;;;;;2.70;2.50;;;21.50;99.90;;;;;;5041469;28;20226;-77
2021/06/24 04:06:09;;;;;;;4.50;2.77;;;21.60;99.90;;;;;;5042340;28;20187;-77
2021/06/24 04:08:38;;;;;;;3.27;2.77;;;21.60;99.90;;;;;;5060148;28;20199;-77
2021/06/24 04:11:06;;;;;;;3.03;2.50;;;21.60;99.90;;;;;;5046257;28;20282;-76
2021/06/24 04:13:32;;;;;;;3.23;2.63;;;21.70;99.90;;;;;;5045597;28;20219;-77
2021/06/24 04:15:59;;;;;;;3.13;2.83;;;21.70;99.90;;;;;;5023727;28;20763;-76
2021/06/24 04:18:25;;;;;;;3.13;2.70;;;21.70;99.90;;;;;;5023443;28;20195;-77
2021/06/24 04:20:52;;;;;;;4.10;2.80;;;21.80;99.90;;;;;;5044689;28;20274;-77
2021/06/24 04:23:18;;;;;;;4.03;2.50;;;21.80;99.90;;;;;;5031122;28;20197;-77
2021/06/24 04:25:45;;;;;;;2.90;2.70;;;21.80;99.90;;;;;;5042290;28;20274;-77
2021/06/24 04:28:11;;;;;;;4.53;2.83;;;21.80;99.90;;;;;;5055103;28;20194;-76
2021/06/24 04:30:38;;;;;;;5.23;2.83;;;21.90;99.90;;;;;;5044001;28;20195;-77
2021/06/24 04:33:04;;;;;;;4.53;2.80;;;21.90;99.90;;;;;;5041436;28;20218;-76
2021/06/24 04:35:31;;;;;;;3.87;2.80;;;21.90;99.90;;;;;;5025244;28;20189;-76
2021/06/24 04:37:59;;;;;;;3.00;2.70;;;22.00;99.90;;;;;;5043001;28;20191;-76
2021/06/24 04:40:26;;;;;;;2.77;2.57;;;22.00;99.90;;;;;;5035837;28;20190;-76
2021/06/24 04:42:52;;;;;;;3.30;3.00;;;22.00;99.90;;;;;;5023660;28;20179;-76
2021/06/24 04:45:19;;;;;;;4.20;2.33;;;22.00;99.90;;;;;;5044869;28;20657;-78
2021/06/24 04:47:48;;;;;;;2.80;2.30;;;22.00;99.90;;;;;;5041153;28;20182;-76
2021/06/24 04:50:16;;;;;;;4.60;2.77;;;22.10;99.90;;;;;;5045498;28;20279;-76
2021/06/24 04:52:42;;;;;;;2.93;2.40;;;22.10;99.90;;;;;;5031779;28;20187;-78
2021/06/24 04:55:09;;;;;;;2.67;2.47;;;22.10;99.90;;;;;;5026158;28;20221;-75
2021/06/24 04:57:36;;;;;;;4.57;2.70;;;22.20;99.90;;;;;;5042982;28;20194;-76
2021/06/24 05:00:05;;;;;;;2.90;2.60;;;22.30;99.90;;;;;;5041326;28;20802;-78
2021/06/24 05:02:32;;;;;;;3.00;2.80;;;22.30;99.90;;;;;;5023847;28;20180;-76
2021/06/24 05:04:58;;;;;;;2.90;2.70;;;22.30;99.90;;;;;;5042346;28;20219;-77
2021/06/24 05:07:26;;;;;;;3.20;2.40;;;22.40;99.90;;;;;;5041998;28;20206;-78
2021/06/24 05:09:52;;;;;;;2.83;2.53;;;22.40;99.90;;;;;;5027444;28;20195;-78
2021/06/24 05:12:19;;;;;;;3.43;2.90;;;22.40;99.90;;;;;;5027194;28;20188;-78
2021/06/24 05:14:45;;;;;;;2.50;2.30;;;22.50;99.90;;;;;;5057830;28;20648;-77
2021/06/24 05:17:15;;;;;;;4.57;2.70;;;22.60;99.90;;;;;;5026508;28;20243;-78
2021/06/24 05:19:43;;;;;;;2.83;2.53;;;22.60;99.90;;;;;;5028382;28;20227;-78
2021/06/24 05:22:14;;;;;;;3.25;2.28;;;22.70;99.90;;;;;;5025398;28;20191;-76
2021/06/24 05:24:41;;;;;;;2.70;2.50;;;22.70;99.90;;;;;;5056295;28;20678;-77
2021/06/24 05:27:09;;;;;;;4.18;2.75;;;22.80;99.90;;;;;;5057430;28;20226;-78
2021/06/24 05:29:36;;;;;;;3.17;2.73;;;22.80;99.90;;;;;;5029940;28;20194;-78
2021/06/24 05:32:03;;;;;;;3.00;2.60;;;22.80;99.90;;;;;;5056918;28;20201;-77
2021/06/24 05:34:34;;;;;;;2.80;2.50;;;22.80;99.90;;;;;;5029005;28;20230;-79
2021/06/24 05:37:14;;;;;;;3.63;2.50;;;23.00;99.90;;;;;;5048242;28;20258;-79
2021/06/24 05:39:44;;;;;;;3.00;2.10;;;23.10;99.90;;;;;;5061912;28;20196;-80
2021/06/24 05:42:12;;;;;;;2.50;2.28;;;23.20;99.90;;;;;;5016226;28;20196;-79
2021/06/24 05:44:39;;;;;;;4.18;2.50;;;23.30;99.90;;;;;;5062406;28;20199;-79
2021/06/24 05:47:06;;;;;;;2.38;2.17;;;23.30;99.90;;;;;;5031106;28;20273;-80
2021/06/24 05:49:32;;;;;;;2.60;2.40;;;23.30;99.90;;;;;;5050103;28;20195;-79
2021/06/24 05:51:59;;;;;;;2.40;2.20;;;23.40;99.90;;;;;;5050165;28;20249;-78
2021/06/24 05:54:26;;;;;;;2.40;2.20;;;23.30;99.90;;;;;;5058442;28;20310;-78
2021/06/24 05:56:53;;;;;;;6.70;2.50;;;23.30;99.90;;;;;;5048865;28;20191;-78
2021/06/24 05:59:20;;;;;;;2.10;1.92;;;23.50;99.90;;;;;;5056993;28;20199;-80
2021/06/24 06:01:51;;;;;;;2.50;2.25;;;23.40;99.90;;;;;;5044807;28;20222;-80
2021/06/24 06:04:18;;;;;;;2.72;2.28;;;23.30;99.90;;;;;;5044964;28;20211;-79
2021/06/24 06:06:45;;;;;;;2.85;2.55;;;23.30;99.90;;;;;;5043969;28;20242;-78
2021/06/24 06:09:12;;;;;;;4.45;2.28;;;23.90;99.90;;;;;;5043957;28;20198;-77
2021/06/24 06:11:39;;;;;;;2.40;2.20;;;24.80;99.90;;;;;;5059291;28;20183;-77
2021/06/24 06:14:06;;;;;;;3.60;2.45;;;24.30;99.90;;;;;;5045428;28;20204;-77
2021/06/24 06:16:33;;;;;;;2.53;2.30;;;24.20;99.90;;;;;;5027553;28;20180;-78
2021/06/24 06:19:00;;;;;;;3.55;2.38;;;24.00;99.90;;;;;;5060079;28;20244;-80
2021/06/24 06:21:29;;;;;;;3.00;2.20;;;24.00;99.90;;;;;;5028563;28;20787;-81
2021/06/24 06:23:57;;;;;;;4.32;2.65;;;24.20;99.90;;;;;;5035098;28;20195;-80
2021/06/24 06:26:26;;;;;;;2.67;2.30;;;24.10;99.90;;;;;;5042156;28;20245;-78
2021/06/24 06:28:53;;;;;;;3.33;2.58;;;24.30;99.90;;;;;;4997078;28;20215;-78
2021/06/24 06:31:22;;;;;;;2.67;2.30;;;24.60;99.90;;;;;;5030560;28;20278;-78
2021/06/24 06:33:48;;;;;;;4.60;2.28;;;24.80;99.90;;;;;;5046296;28;20595;-78
2021/06/24 06:36:15;;;;;;;2.30;2.10;;;25.70;99.90;;;;;;5044659;28;20310;-77
2021/06/24 06:38:41;;;;;;;4.28;2.20;;;26.10;99.90;;;;;;5046158;28;20194;-77
2021/06/24 06:41:08;;;;;;;5.35;2.47;;;25.90;99.90;;;;;;5043342;28;20245;-78
2021/06/24 06:43:34;;;;;;;2.72;2.05;;;26.10;99.90;;;;;;5044907;28;20203;-80
2021/06/24 06:46:00;;;;;;;3.38;2.50;;;26.00;99.90;;;;;;5046042;28;20215;-79
2021/06/24 06:48:27;;;;;;;4.50;2.95;;;25.90;99.90;;;;;;5034206;28;20231;-78
2021/06/24 06:50:54;;;;;;;3.60;2.72;;;26.20;99.90;;;;;;5028014;28;21102;-78
2021/06/24 06:53:22;;;;;;;3.10;2.80;;;26.70;99.90;;;;;;5043124;28;20678;-79
2021/06/24 06:55:48;;;;;;;3.92;2.65;;;26.70;99.90;;;;;;5031727;28;20287;-79
2021/06/24 06:58:15;;;;;;;5.07;3.15;;;26.80;99.90;;;;;;5043936;28;20733;-79
2021/06/24 07:00:41;;;;;;;4.82;2.83;;;26.80;99.90;;;;;;5027586;28;20197;-79
2021/06/24 07:03:08;;;;;;;3.13;2.70;;;27.00;99.90;;;;;;5027202;28;20523;-79
2021/06/24 07:05:34;;;;;;;4.57;2.70;;;27.00;99.90;;;;;;5041061;28;20207;-79
2021/06/24 07:08:01;;;;;;;5.88;2.70;;;26.90;99.90;;;;;;5024836;28;20187;-78
2021/06/24 07:10:28;;;;;;;2.80;2.60;;;26.90;99.90;;;;;;5058098;28;20183;-79
2021/06/24 07:12:54;;;;;;;5.40;3.20;;;26.90;99.90;;;;;;5026617;28;20190;-79
2021/06/24 07:15:21;;;;;;;4.88;2.90;;;27.00;99.90;;;;;;5046926;28;20207;-79
2021/06/24 07:17:48;;;;;;;4.22;3.03;;;27.00;99.90;;;;;;5025985;28;20820;-79
2021/06/24 07:20:15;;;;;;;3.60;3.30;;;26.90;99.90;;;;;;5042534;28;20222;-77
2021/06/24 07:22:43;;;;;;;5.35;3.17;;;26.90;99.90;;;;;;5055752;28;20992;-79
2021/06/24 07:25:18;;;;;;;6.38;3.45;;;27.20;99.90;;;;;;5044142;28;20303;-79
2021/06/24 07:27:45;;;;;;;7.25;3.38;;;27.20;99.90;;;;;;5053392;28;20206;-78
2021/06/24 07:30:16;;;;;;;3.75;3.30;;;27.20;99.90;;;;;;5045199;28;20201;-78
2021/06/24 07:32:43;;;;;;;4.95;3.20;;;27.30;99.90;;;;;;5027251;28;20513;-78
2021/06/24 07:35:11;;;;;;;4.03;3.50;;;27.30;99.90;;;;;;5021797;28;20667;-77
2021/06/24 07:37:38;;;;;;;4.18;3.20;;;27.20;99.90;;;;;;5041156;28;20246;-79
2021/06/24 07:40:06;;;;;;;6.85;3.70;;;27.30;99.90;;;;;;5036041;28;20308;-79
2021/06/24 07:42:33;;;;;;;4.07;3.58;;;27.40;99.90;;;;;;5029131;28;20192;-78
2021/06/24 07:45:00;;;;;;;5.97;3.60;;;27.50;99.90;;;;;;5042942;28;21104;-78
2021/06/24 07:47:27;;;;;;;5.05;3.00;;;27.40;99.90;;;;;;5026574;28;20613;-78
2021/06/24 07:49:54;;;;;;;4.90;3.10;;;27.40;99.90;;;;;;5024962;28;20188;-76
2021/06/24 07:52:21;;;;;;;4.47;3.45;;;27.50;99.90;;;;;;5025066;28;20227;-78
2021/06/24 07:54:47;;;;;;;5.63;3.08;;;27.70;99.90;;;;;;5029188;28;20837;-76
2021/06/24 07:57:13;;;;;;;3.60;3.30;;;27.70;99.90;;;;;;5038442;28;20190;-77
2021/06/24 07:59:40;;;;;;;4.28;3.55;;;27.50;99.90;;;;;;5031422;28;20947;-77
2021/06/24 08:02:06;;;;;;;3.58;3.08;;;27.40;99.90;;;;;;5040038;28;20638;-76
2021/06/24 08:04:34;;;;;;;4.93;3.35;;;27.80;99.90;;;;;;5041457;28;20217;-76
2021/06/24 08:07:03;;;;;;;4.45;3.40;;;27.90;99.90;;;;;;5042152;28;20199;-76
2021/06/24 08:09:29;;;;;;;5.47;3.42;;;27.70;99.90;;;;;;5027068;28;20198;-77
2021/06/24 08:11:56;;;;;;;4.25;3.30;;;27.80;99.90;;;;;;5042805;28;20743;-78
2021/06/24 08:14:23;;;;;;;4.38;3.42;;;27.90;99.90;;;;;;5055451;28;20214;-80
2021/06/24 08:16:51;;;;;;;3.90;3.60;;;27.60;99.90;;;;;;5042048;28;20529;-79
2021/06/24 08:19:19;;;;;;;6.00;3.47;;;27.70;99.90;;;;;;5044798;28;20211;-75
2021/06/24 08:21:46;;;;;;;6.80;3.40;;;27.70;99.90;;;;;;5051582;28;20180;-77
2021/06/24 08:24:13;;;;;;;4.18;3.40;;;27.70;99.90;;;;;;5022640;28;20196;-77
2021/06/24 08:26:39;;;;;;;12.07;3.67;;;27.70;99.90;;;;;;5040235;28;20195;-77
2021/06/24 08:29:06;;;;;;;5.68;3.85;;;28.10;99.90;;;;;;5026276;28;20192;-75
2021/06/24 08:31:33;;;;;;;4.28;3.60;;;28.10;99.90;;;;;;5051856;28;20183;-78
2021/06/24 08:34:01;;;;;;;5.43;3.83;;;28.00;99.90;;;;;;5039995;28;20219;-79
2021/06/24 08:36:28;;;;;;;5.53;3.58;;;28.30;99.90;;;;;;5043945;28;20239;-76
2021/06/24 08:38:54;;;;;;;5.95;3.47;;;28.30;99.90;;;;;;5026841;28;20210;-80
2021/06/24 08:41:25;;;;;;;5.50;3.40;;;28.30;99.90;;;;;;5040351;28;20214;-79
2021/06/24 08:43:53;;;;;;;5.25;3.60;;;28.60;99.90;;;;;;5025331;28;20214;-79
2021/06/24 08:46:23;;;;;;;4.68;3.65;;;28.70;99.90;;;;;;5026784;28;20195;-79
2021/06/24 08:48:50;;;;;;;7.30;3.55;;;28.50;99.90;;;;;;5041898;28;20237;-77
2021/06/24 08:51:17;;;;;;;6.03;4.07;;;28.90;99.90;;;;;;5022790;28;20211;-77
2021/06/24 08:53:47;;;;;;;6.15;3.67;;;29.20;99.90;;;;;;5021953;28;20212;-77
2021/06/24 08:56:16;;;;;;;5.95;4.00;;;29.30;99.90;;;;;;5025192;28;20175;-77
2021/06/24 08:58:48;;;;;;;3.88;3.58;;;29.30;99.90;;;;;;5027550;28;20180;-76
2021/06/24 09:01:14;;;;;;;4.50;3.72;;;29.10;99.90;;;;;;5040685;28;20187;-77
2021/06/24 09:03:41;;;;;;;6.00;3.85;;;29.40;99.90;;;;;;5056590;28;20969;-77
2021/06/24 09:06:09;;;;;;;15.10;4.22;;;29.30;99.90;;;;;;5044045;28;20310;-77
2021/06/24 09:08:44;;;;;;;5.13;3.90;;;29.40;99.90;;;;;;5026234;28;20199;-77
2021/06/24 09:11:24;;;;;;;4.53;3.95;;;29.40;99.90;;;;;;5032960;28;20551;-79
2021/06/24 09:14:11;;;;;;;5.97;4.13;;;29.40;99.90;;;;;;5021112;28;20239;-79
2021/06/24 09:16:42;;;;;;;4.80;4.05;;;29.50;99.90;;;;;;5042615;28;20188;-79
2021/06/24 09:19:23;;;;;;;5.88;3.85;;;29.50;99.90;;;;;;5039237;28;20662;-78
2021/06/24 09:22:02;;;;;;;8.32;4.10;;;29.60;99.90;;;;;;5039584;28;20194;-76
2021/06/24 09:24:34;;;;;;;8.02;3.85;;;29.60;99.90;;;;;;5024885;28;20540;-78
2021/06/24 09:27:29;;;;;;;8.13;4.20;;;29.80;99.90;;;;;;5020591;28;20203;-78
2021/06/24 09:30:13;;;;;;;4.72;4.00;;;29.80;99.90;;;;;;5037695;28;20195;-77
2021/06/24 09:32:46;;;;;;;7.10;4.03;;;29.90;99.90;;;;;;5026565;28;20707;-78
2021/06/24 09:35:27;;;;;;;4.32;3.90;;;29.80;99.90;;;;;;5039036;28;20210;-78
2021/06/24 09:38:20;;;;;;;5.57;3.85;;;29.80;99.90;;;;;;5010352;28;20813;-78
2021/06/24 09:40:57;;;;;;;7.95;3.85;;;29.80;99.90;;;;;;5036125;28;20546;-78
2021/06/24 09:43:23;;;;;;;6.63;3.90;;;29.80;99.90;;;;;;5041996;28;20183;-78
2021/06/24 09:46:20;;;;;;;9.30;4.60;;;29.90;99.90;;;;;;5036976;28;20184;-78
2021/06/24 09:48:52;;;;;;;6.63;4.15;;;29.90;99.90;;;;;;5042024;28;20221;-79
2021/06/24 09:51:32;;;;;;;7.47;3.72;;;29.90;99.90;;;;;;5023425;28;20198;-79
2021/06/24 09:54:03;;;;;;;11.68;4.10;;;29.90;99.90;;;;;;5057674;28;20199;-79
2021/06/24 09:56:45;;;;;;;8.38;4.35;;;30.10;99.90;;;;;;5038863;28;20183;-78
2021/06/24 09:59:17;;;;;;;4.47;3.75;;;30.10;99.90;;;;;;5037654;28;20191;-78
2021/06/24 10:01:46;;;;;;;4.25;3.85;;;30.30;99.90;;;;;;5036052;28;20651;-76
2021/06/24 10:04:28;;;;;;;8.48;4.32;;;30.30;99.90;;;;;;5021908;28;20222;-76
2021/06/24 10:07:06;;;;;;;9.32;3.90;;;30.40;99.90;;;;;;5038566;28;20203;-77
2021/06/24 10:09:32;;;;;;;4.32;3.92;;;30.70;99.90;;;;;;5040841;28;20194;-77
2021/06/24 10:12:00;;;;;;;6.18;4.22;;;30.80;99.90;;;;;;5033264;28;20199;-77
2021/06/24 10:14:28;;;;;;;8.32;4.20;;;30.90;99.90;;;;;;5042279;28;20346;-77
2021/06/24 10:16:58;;;;;;;10.75;4.20;;;30.80;99.90;;;;;;5042753;28;22191;-78
2021/06/24 10:19:41;;;;;;;9.00;3.97;;;30.80;99.90;;;;;;5034612;28;20196;-78
2021/06/24 10:22:24;;;;;;;6.78;4.13;;;30.90;99.90;;;;;;5042935;28;20845;-78
2021/06/24 10:25:15;;;;;;;4.50;4.03;;;30.90;99.90;;;;;;5025460;28;20183;-78
2021/06/24 10:27:47;;;;;;;4.93;3.83;;;30.90;99.90;;;;;;5049277;28;20211;-78
2021/06/24 10:30:22;;;;;;;6.20;4.10;;;31.00;99.90;;;;;;5038881;28;20644;-78
2021/06/24 10:33:00;;;;;;;7.53;3.70;;;30.60;99.90;;;;;;5041268;28;20579;-77
2021/06/24 10:35:42;;;;;;;9.00;4.18;;;30.90;99.90;;;;;;5023316;28;20198;-78
2021/06/24 10:38:12;;;;;;;6.20;3.67;;;31.10;99.90;;;;;;5056566;28;20187;-78
2021/06/24 10:40:57;;;;;;;4.45;3.60;;;31.40;99.90;;;;;;5024122;28;20206;-78
2021/06/24 10:43:42;;;;;;;10.23;4.22;;;31.60;99.90;;;;;;5017988;28;20278;-78
2021/06/24 10:46:16;;;;;;;6.57;3.60;;;31.60;99.90;;;;;;5020984;28;20211;-77
2021/06/24 10:48:43;;;;;;;5.60;3.35;;;31.60;99.90;;;;;;5015023;28;20479;-78
2021/06/24 10:51:12;;;;;;;4.25;3.70;;;31.50;99.90;;;;;;5025057;23;20927;-74
2021/06/24 10:53:55;;;;;;;7.18;3.42;;;31.60;99.90;;;;;;5017584;28;20880;-76
2021/06/24 10:56:45;;;;;;;6.38;4.65;;;31.70;99.90;;;;;;5002117;28;20273;-75
2021/06/24 10:59:32;;;;;;;5.15;4.05;;;31.50;99.90;;;;;;5008838;28;20267;-75
2021/06/24 11:02:10;;;;;;;7.88;3.92;;;31.40;99.90;;;;;;5002584;28;20188;-79
2021/06/24 11:04:40;;;;;;;7.43;3.78;;;31.60;99.90;;;;;;5018367;28;20243;-75
2021/06/24 11:07:33;;;;;;;5.03;3.85;;;31.50;99.90;;;;;;5020009;28;20212;-78
2021/06/24 11:10:14;;;;;;;5.65;3.63;;;31.50;99.90;;;;;;5012065;28;20232;-79
2021/06/24 11:13:00;;;;;;;6.32;3.70;;;31.50;99.90;;;;;;5022314;28;20188;-76
2021/06/24 11:15:53;;;;;;;4.95;3.90;;;31.50;99.90;;;;;;5031934;28;20213;-75
2021/06/24 11:19:10;;;;;;;6.07;3.40;;;31.40;99.90;;;;;;5018606;28;20185;-80
2021/06/24 11:21:37;;;;;;;6.95;3.55;;;31.40;99.90;;;;;;5000822;28;20242;-75
2021/06/24 11:24:06;;;;;;;11.68;3.80;;;31.30;99.90;;;;;;5023174;28;20267;-77
2021/06/24 11:26:44;;;;;;;4.88;3.83;;;31.30;99.90;;;;;;5021790;28;20191;-78
2021/06/24 11:29:29;;;;;;;4.20;3.80;;;31.10;99.90;;;;;;5019787;28;20195;-76
2021/06/24 11:32:27;;;;;;;8.35;3.88;;;31.00;99.90;;;;;;5004700;28;20717;-79
2021/06/24 11:35:04;;;;;;;4.40;3.90;;;30.90;99.90;;;;;;5035463;28;20305;-75
2021/06/24 11:37:34;;;;;;;10.32;3.67;;;30.60;99.90;;;;;;5021924;28;20199;-78
2021/06/24 11:40:09;;;;;;;6.93;4.03;;;30.80;99.90;;;;;;5022959;28;20752;-79
2021/06/24 11:42:46;;;;;;;4.32;3.85;;;30.90;99.90;;;;;;5019092;28;20199;-77
2021/06/24 11:45:21;;;;;;;8.68;3.85;;;31.10;99.90;;;;;;5022400;28;20184;-78
2021/06/24 11:47:52;;;;;;;4.22;3.83;;;31.10;99.90;;;;;;5023409;28;20231;-76
2021/06/24 12:04:20;;;;;;;5.82;4.20;;;31.00;99.90;;;;;;5016319;28;20191;-76
2021/06/24 12:07:10;;;;;;;6.65;3.40;;;30.90;99.90;;;;;;5019570;28;20204;-77
2021/06/24 12:09:52;;;;;;;6.45;3.80;;;31.00;99.90;;;;;;5008200;28;20192;-77
2021/06/24 12:12:24;;;;;;;4.85;3.38;;;31.10;99.90;;;;;;5019005;28;20199;-76
2021/06/24 12:14:55;;;;;;;9.48;3.65;;;31.30;99.90;;;;;;5029601;28;20343;-76
2021/06/24 12:17:30;;;;;;;6.72;3.92;;;31.20;99.90;;;;;;4998521;28;20203;-78
2021/06/24 12:19:56;;;;;;;5.03;3.53;;;30.90;99.90;;;;;;5008153;28;20193;-78
2021/06/24 12:22:31;;;;;;;6.03;3.78;;;31.10;99.90;;;;;;5001280;28;20821;-78
2021/06/24 12:24:59;;;;;;;7.05;3.80;;;31.20;99.90;;;;;;4999976;28;20183;-78
2021/06/24 12:27:39;;;;;;;4.93;3.45;;;31.20;99.90;;;;;;5021252;28;20199;-80
2021/06/24 12:30:16;;;;;;;10.13;3.70;;;31.00;99.90;;;;;;5014682;28;20238;-77
2021/06/24 12:33:11;;;;;;;9.32;4.07;;;31.10;99.90;;;;;;5018624;28;20732;-74
2021/06/24 12:35:49;;;;;;;4.55;3.72;;;30.70;99.90;;;;;;5024567;28;20207;-78
2021/06/24 12:38:35;;;;;;;9.05;4.03;;;31.10;99.90;;;;;;5020160;28;20214;-78
2021/06/24 12:41:17;;;;;;;7.95;3.67;;;31.00;99.90;;;;;;5015988;28;20310;-78
2021/06/24 12:43:44;;;;;;;10.73;3.97;;;31.00;99.90;;;;;;5004901;28;20183;-80
2021/06/24 12:46:11;;;;;;;8.02;3.40;;;31.00;99.90;;;;;;5019300;28;20223;-77
2021/06/24 12:48:45;;;;;;;8.13;3.58;;;30.90;99.90;;;;;;5019712;28;20282;-77
2021/06/24 12:51:18;;;;;;;7.07;3.65;;;30.80;99.90;;;;;;5006546;28;20245;-77
2021/06/24 12:53:49;;;;;;;6.90;3.80;;;30.90;99.90;;;;;;5002480;28;20220;-76
2021/06/24 12:56:33;;;;;;;6.05;3.30;;;30.60;99.90;;;;;;5020150;28;20234;-77
2021/06/24 12:59:22;;;;;;;5.15;3.70;;;31.00;99.90;;;;;;5032129;28;20192;-77
2021/06/24 13:01:53;;;;;;;4.93;3.75;;;30.70;99.90;;;;;;5021565;28;20176;-80
2021/06/24 13:04:28;;;;;;;12.65;4.15;;;30.60;99.90;;;;;;5016855;28;20198;-78
2021/06/24 13:07:03;;;;;;;4.25;3.55;;;30.10;99.90;;;;;;5023819;28;21114;-76
2021/06/24 13:09:43;;;;;;;9.18;3.50;;;29.90;99.90;;;;;;5018675;28;20638;-78
2021/06/24 13:12:11;;;;;;;6.05;3.38;;;30.50;99.90;;;;;;5030398;28;20270;-76
2021/06/24 13:14:46;;;;;;;4.82;3.70;;;30.80;99.90;;;;;;5025203;28;20204;-76
2021/06/24 13:17:16;;;;;;;9.30;4.13;;;30.40;99.90;;;;;;5023872;28;20235;-77